KTUP/TUP METAR and TAF weather

Enter ICAO airport designator
Station Type Date Time Source
KTUP METAR 2020/01/28 11:53 UTC NOAA

KTUP 281153Z 00000KT 10SM CLR 02/01 A3005 RMK AO2 SLP177 70001 T00220006 1


Station Type Date Time Source
KTUP Decoded METAR 2020/01/28 11:53 UTC NOAA

TUPELO REGIONAL AIRPORT, MS, United States (KTUP) 34-16N 88-46W 105M
Jan 28, 2020 - 06:53 AM EST / 2020.01.28 1153 UTC
Wind: Calm:0
Visibility: 10 mile(s):0
Sky conditions: clear
Temperature: 36.0 F (2.2 C)
Dew Point: 33.1 F (0.6 C)
Relative Humidity: 89%
Pressure (altimeter): 30.05 in. Hg (1017 hPa)
Pressure tendency: 0.02 inches (0.8 hPa) higher than three hours ago
ob: KTUP 281153Z 00000KT 10SM CLR 02/01 A3005 RMK AO2 SLP177 70001 T00220006 10044 20011 53008
cycle: 12

Station Type Date Time Source
KTUP TAF 2020/01/28 12:39 UTC NOAA

TAF KTUP 281136Z 2812/2912 VRB03KT P6SM SCT250
TEMPO 2812/2814 5SM BR
FM281900 12004KT P6SM SCT070 BKN200
FM290300 06003KT P6SM VCSH SCT030 OVC060
FM290600 07006KT 6SM -SHRA BR BKN020 OVC040

Example: see airport list